sensor_id;sensor_type;location;lat;lon;timestamp;pressure;altitude;pressure_sealevel;temperature;humidity
11114;BME280;5610;52.154;9.198;2024-02-21T00:00:32;101264.13;;;9.53;100.00
11114;BME280;5610;52.154;9.198;2024-02-21T00:03:18;101266.78;;;9.53;100.00
11114;BME280;5610;52.154;9.198;2024-02-21T00:06:04;101266.56;;;9.58;100.00
11114;BME280;5610;52.154;9.198;2024-02-21T00:08:49;101261.59;;;9.50;100.00
11114;BME280;5610;52.154;9.198;2024-02-21T00:11:35;101259.31;;;9.61;100.00
11114;BME280;5610;52.154;9.198;2024-02-21T00:14:20;101256.94;;;9.74;100.00
11114;BME280;5610;52.154;9.198;2024-02-21T00:17:06;101257.72;;;9.76;100.00
11114;BME280;5610;52.154;9.198;2024-02-21T00:19:53;101251.44;;;9.77;100.00
11114;BME280;5610;52.154;9.198;2024-02-21T00:22:39;101250.78;;;9.91;100.00
11114;BME280;5610;52.154;9.198;2024-02-21T00:25:24;101250.94;;;9.88;100.00
11114;BME280;5610;52.154;9.198;2024-02-21T00:28:09;101241.84;;;9.92;100.00
11114;BME280;5610;52.154;9.198;2024-02-21T00:30:54;101229.47;;;9.74;100.00
11114;BME280;5610;52.154;9.198;2024-02-21T00:33:39;101228.28;;;9.79;100.00
11114;BME280;5610;52.154;9.198;2024-02-21T00:36:26;101234.03;;;9.89;100.00
11114;BME280;5610;52.154;9.198;2024-02-21T00:39:11;101224.53;;;9.83;100.00
11114;BME280;5610;52.154;9.198;2024-02-21T00:41:56;101225.59;;;9.79;100.00
11114;BME280;5610;52.154;9.198;2024-02-21T00:44:42;101222.59;;;9.87;100.00
11114;BME280;5610;52.154;9.198;2024-02-21T00:47:27;101212.00;;;9.85;100.00
11114;BME280;5610;52.154;9.198;2024-02-21T00:50:12;101204.56;;;9.92;100.00
11114;BME280;5610;52.154;9.198;2024-02-21T00:52:59;101205.59;;;9.89;100.00
11114;BME280;5610;52.154;9.198;2024-02-21T00:55:44;101189.06;;;10.00;100.00
11114;BME280;5610;52.154;9.198;2024-02-21T00:58:29;101198.31;;;9.93;100.00
11114;BME280;5610;52.154;9.198;2024-02-21T01:01:21;101191.53;;;9.87;100.00
11114;BME280;5610;52.154;9.198;2024-02-21T01:04:06;101193.94;;;9.92;100.00
11114;BME280;5610;52.154;9.198;2024-02-21T01:06:51;101175.47;;;9.89;100.00
11114;BME280;5610;52.154;9.198;2024-02-21T01:09:38;101191.91;;;9.80;100.00
11114;BME280;5610;52.154;9.198;2024-02-21T01:12:23;101187.75;;;9.91;100.00
11114;BME280;5610;52.154;9.198;2024-02-21T01:15:09;101178.91;;;9.91;100.00
11114;BME280;5610;52.154;9.198;2024-02-21T01:17:54;101193.44;;;9.84;100.00
11114;BME280;5610;52.154;9.198;2024-02-21T01:20:39;101172.09;;;10.03;100.00
11114;BME280;5610;52.154;9.198;2024-02-21T01:23:25;101163.19;;;10.04;100.00
11114;BME280;5610;52.154;9.198;2024-02-21T01:26:11;101164.03;;;10.04;100.00
11114;BME280;5610;52.154;9.198;2024-02-21T01:28:58;101158.47;;;9.91;100.00
11114;BME280;5610;52.154;9.198;2024-02-21T01:31:43;101170.13;;;9.89;100.00
11114;BME280;5610;52.154;9.198;2024-02-21T01:34:28;101161.22;;;9.90;100.00
11114;BME280;5610;52.154;9.198;2024-02-21T01:37:13;101160.81;;;9.98;100.00
11114;BME280;5610;52.154;9.198;2024-02-21T01:39:58;101166.59;;;10.06;100.00
11114;BME280;5610;52.154;9.198;2024-02-21T01:42:45;101169.66;;;9.98;100.00
11114;BME280;5610;52.154;9.198;2024-02-21T01:45:31;101155.88;;;10.07;100.00
11114;BME280;5610;52.154;9.198;2024-02-21T01:48:17;101151.66;;;10.03;100.00
11114;BME280;5610;52.154;9.198;2024-02-21T01:51:04;101143.69;;;10.03;100.00
11114;BME280;5610;52.154;9.198;2024-02-21T01:53:51;101145.56;;;10.01;100.00
11114;BME280;5610;52.154;9.198;2024-02-21T01:56:36;101142.72;;;10.04;100.00
11114;BME280;5610;52.154;9.198;2024-02-21T01:59:23;101133.97;;;10.02;100.00
11114;BME280;5610;52.154;9.198;2024-02-21T02:02:08;101135.59;;;10.05;100.00
11114;BME280;5610;52.154;9.198;2024-02-21T02:04:54;101135.28;;;9.94;100.00
11114;BME280;5610;52.154;9.198;2024-02-21T02:07:39;101130.69;;;9.97;100.00
11114;BME280;5610;52.154;9.198;2024-02-21T02:10:24;101134.06;;;10.01;100.00
11114;BME280;5610;52.154;9.198;2024-02-21T02:13:10;101130.22;;;9.89;100.00
11114;BME280;5610;52.154;9.198;2024-02-21T02:15:56;101120.50;;;9.88;100.00
11114;BME280;5610;52.154;9.198;2024-02-21T02:18:41;101108.84;;;10.08;100.00
11114;BME280;5610;52.154;9.198;2024-02-21T02:21:29;101114.31;;;10.05;100.00
11114;BME280;5610;52.154;9.198;2024-02-21T02:24:16;101110.00;;;10.02;100.00
11114;BME280;5610;52.154;9.198;2024-02-21T02:27:01;101108.75;;;9.92;100.00
11114;BME280;5610;52.154;9.198;2024-02-21T02:29:46;101097.63;;;9.84;100.00
11114;BME280;5610;52.154;9.198;2024-02-21T02:32:31;101101.69;;;9.91;100.00
11114;BME280;5610;52.154;9.198;2024-02-21T02:35:16;101112.00;;;10.14;100.00
11114;BME280;5610;52.154;9.198;2024-02-21T02:38:02;101101.22;;;10.17;100.00
11114;BME280;5610;52.154;9.198;2024-02-21T02:40:48;101095.53;;;10.25;100.00
11114;BME280;5610;52.154;9.198;2024-02-21T02:43:34;101085.19;;;10.02;100.00
11114;BME280;5610;52.154;9.198;2024-02-21T02:46:20;101087.59;;;10.06;100.00
11114;BME280;5610;52.154;9.198;2024-02-21T02:49:05;101082.28;;;10.06;100.00
11114;BME280;5610;52.154;9.198;2024-02-21T02:51:50;101081.31;;;10.07;100.00
11114;BME280;5610;52.154;9.198;2024-02-21T02:54:35;101073.63;;;10.18;100.00
11114;BME280;5610;52.154;9.198;2024-02-21T02:57:22;101072.00;;;10.16;100.00
11114;BME280;5610;52.154;9.198;2024-02-21T03:00:08;101074.28;;;10.24;100.00
11114;BME280;5610;52.154;9.198;2024-02-21T03:02:54;101062.28;;;10.32;100.00
11114;BME280;5610;52.154;9.198;2024-02-21T03:05:39;101063.31;;;10.30;100.00
11114;BME280;5610;52.154;9.198;2024-02-21T03:08:24;101040.91;;;10.16;100.00
11114;BME280;5610;52.154;9.198;2024-02-21T03:11:09;101045.38;;;10.16;100.00
11114;BME280;5610;52.154;9.198;2024-02-21T03:13:56;101022.50;;;10.12;100.00
11114;BME280;5610;52.154;9.198;2024-02-21T03:16:41;101029.50;;;9.97;100.00
11114;BME280;5610;52.154;9.198;2024-02-21T03:19:26;101018.91;;;9.80;100.00
11114;BME280;5610;52.154;9.198;2024-02-21T03:22:11;101006.31;;;9.99;100.00
11114;BME280;5610;52.154;9.198;2024-02-21T03:24:56;101008.00;;;9.84;100.00
11114;BME280;5610;52.154;9.198;2024-02-21T03:27:42;101002.22;;;9.76;100.00
11114;BME280;5610;52.154;9.198;2024-02-21T03:30:28;100986.75;;;9.67;100.00
11114;BME280;5610;52.154;9.198;2024-02-21T03:33:13;100992.34;;;9.78;100.00
11114;BME280;5610;52.154;9.198;2024-02-21T03:35:59;100991.22;;;9.67;100.00
11114;BME280;5610;52.154;9.198;2024-02-21T03:38:44;100988.56;;;9.67;100.00
11114;BME280;5610;52.154;9.198;2024-02-21T03:41:29;100991.44;;;9.62;100.00
11114;BME280;5610;52.154;9.198;2024-02-21T03:44:14;100995.03;;;9.61;100.00
11114;BME280;5610;52.154;9.198;2024-02-21T03:47:01;101008.25;;;9.62;100.00
11114;BME280;5610;52.154;9.198;2024-02-21T03:49:46;101002.94;;;9.62;100.00
11114;BME280;5610;52.154;9.198;2024-02-21T03:52:31;101001.28;;;9.43;100.00
11114;BME280;5610;52.154;9.198;2024-02-21T03:55:16;101000.69;;;9.55;100.00
11114;BME280;5610;52.154;9.198;2024-02-21T03:58:02;101005.91;;;9.74;100.00
11114;BME280;5610;52.154;9.198;2024-02-21T04:00:47;101009.44;;;9.74;100.00
11114;BME280;5610;52.154;9.198;2024-02-21T04:03:34;101018.41;;;9.89;100.00
11114;BME280;5610;52.154;9.198;2024-02-21T04:06:19;101012.22;;;9.88;100.00
11114;BME280;5610;52.154;9.198;2024-02-21T04:09:05;101024.09;;;9.99;100.00
11114;BME280;5610;52.154;9.198;2024-02-21T04:11:50;101040.34;;;9.94;100.00
11114;BME280;5610;52.154;9.198;2024-02-21T04:14:35;101039.13;;;10.00;100.00
11114;BME280;5610;52.154;9.198;2024-02-21T04:17:20;101035.56;;;10.01;100.00
11114;BME280;5610;52.154;9.198;2024-02-21T04:20:14;101027.63;;;9.99;100.00
11114;BME280;5610;52.154;9.198;2024-02-21T04:22:59;101029.84;;;9.91;100.00
11114;BME280;5610;52.154;9.198;2024-02-21T04:25:44;101028.28;;;9.87;100.00
11114;BME280;5610;52.154;9.198;2024-02-21T04:28:29;101015.66;;;9.90;100.00
11114;BME280;5610;52.154;9.198;2024-02-21T04:31:14;101020.22;;;9.88;100.00
11114;BME280;5610;52.154;9.198;2024-02-21T04:33:59;101029.28;;;10.02;100.00
11114;BME280;5610;52.154;9.198;2024-02-21T04:36:46;101029.34;;;10.00;100.00
11114;BME280;5610;52.154;9.198;2024-02-21T04:39:31;101029.91;;;9.89;100.00
11114;BME280;5610;52.154;9.198;2024-02-21T04:42:16;101028.06;;;10.07;100.00
11114;BME280;5610;52.154;9.198;2024-02-21T04:45:02;101039.00;;;10.03;100.00
11114;BME280;5610;52.154;9.198;2024-02-21T04:47:47;101018.38;;;10.06;100.00
11114;BME280;5610;52.154;9.198;2024-02-21T04:50:32;101018.75;;;10.16;100.00
11114;BME280;5610;52.154;9.198;2024-02-21T04:53:19;101025.94;;;10.14;100.00
11114;BME280;5610;52.154;9.198;2024-02-21T04:56:04;101011.22;;;10.07;100.00
11114;BME280;5610;52.154;9.198;2024-02-21T04:58:49;101019.00;;;10.11;100.00
11114;BME280;5610;52.154;9.198;2024-02-21T05:01:35;101020.09;;;10.07;100.00
11114;BME280;5610;52.154;9.198;2024-02-21T05:04:20;101026.28;;;10.08;100.00
11114;BME280;5610;52.154;9.198;2024-02-21T05:07:05;101026.00;;;9.97;100.00
11114;BME280;5610;52.154;9.198;2024-02-21T05:09:52;101025.13;;;9.96;100.00
11114;BME280;5610;52.154;9.198;2024-02-21T05:12:37;101004.66;;;9.81;100.00
11114;BME280;5610;52.154;9.198;2024-02-21T05:15:22;101003.31;;;9.72;100.00
11114;BME280;5610;52.154;9.198;2024-02-21T05:18:07;100991.84;;;9.54;100.00
11114;BME280;5610;52.154;9.198;2024-02-21T05:20:52;100987.06;;;9.61;100.00
11114;BME280;5610;52.154;9.198;2024-02-21T05:23:37;100990.44;;;9.47;100.00
11114;BME280;5610;52.154;9.198;2024-02-21T05:26:25;100987.06;;;9.44;100.00
11114;BME280;5610;52.154;9.198;2024-02-21T05:29:11;100994.72;;;9.50;100.00
11114;BME280;5610;52.154;9.198;2024-02-21T05:31:56;101010.28;;;9.57;100.00
11114;BME280;5610;52.154;9.198;2024-02-21T05:34:42;101007.94;;;9.51;100.00
11114;BME280;5610;52.154;9.198;2024-02-21T05:37:27;100994.28;;;9.59;100.00
11114;BME280;5610;52.154;9.198;2024-02-21T05:40:13;100989.03;;;9.40;100.00
11114;BME280;5610;52.154;9.198;2024-02-21T05:42:59;100987.38;;;9.55;100.00
11114;BME280;5610;52.154;9.198;2024-02-21T05:45:45;100986.34;;;9.57;100.00
11114;BME280;5610;52.154;9.198;2024-02-21T05:48:30;100978.31;;;9.59;100.00
11114;BME280;5610;52.154;9.198;2024-02-21T05:51:15;100972.44;;;9.52;100.00
11114;BME280;5610;52.154;9.198;2024-02-21T05:54:00;100969.16;;;9.47;100.00
11114;BME280;5610;52.154;9.198;2024-02-21T05:56:46;100971.50;;;9.53;100.00
11114;BME280;5610;52.154;9.198;2024-02-21T05:59:32;100968.03;;;9.51;100.00
11114;BME280;5610;52.154;9.198;2024-02-21T06:02:17;100965.00;;;9.59;100.00
11114;BME280;5610;52.154;9.198;2024-02-21T06:05:04;100967.59;;;9.60;100.00
11114;BME280;5610;52.154;9.198;2024-02-21T06:07:51;100970.78;;;9.67;100.00
11114;BME280;5610;52.154;9.198;2024-02-21T06:10:36;100968.13;;;9.67;100.00
11114;BME280;5610;52.154;9.198;2024-02-21T06:13:21;100976.78;;;9.71;100.00
11114;BME280;5610;52.154;9.198;2024-02-21T06:16:08;100969.75;;;9.70;100.00
11114;BME280;5610;52.154;9.198;2024-02-21T06:18:53;100959.50;;;9.62;100.00
11114;BME280;5610;52.154;9.198;2024-02-21T06:21:38;100971.09;;;9.61;100.00
11114;BME280;5610;52.154;9.198;2024-02-21T06:24:23;100952.06;;;9.51;100.00
11114;BME280;5610;52.154;9.198;2024-02-21T06:27:08;100968.59;;;9.58;100.00
11114;BME280;5610;52.154;9.198;2024-02-21T06:29:54;100968.22;;;9.66;100.00
11114;BME280;5610;52.154;9.198;2024-02-21T06:32:41;100960.81;;;9.71;100.00
11114;BME280;5610;52.154;9.198;2024-02-21T06:35:26;100960.38;;;9.62;100.00
11114;BME280;5610;52.154;9.198;2024-02-21T06:38:11;100970.16;;;9.62;100.00
11114;BME280;5610;52.154;9.198;2024-02-21T06:40:57;100961.09;;;9.66;100.00
11114;BME280;5610;52.154;9.198;2024-02-21T06:43:44;100959.97;;;9.70;100.00
11114;BME280;5610;52.154;9.198;2024-02-21T06:46:29;100953.97;;;9.67;100.00
11114;BME280;5610;52.154;9.198;2024-02-21T06:49:17;100950.97;;;9.73;100.00
11114;BME280;5610;52.154;9.198;2024-02-21T06:52:04;100955.75;;;9.66;100.00
11114;BME280;5610;52.154;9.198;2024-02-21T06:54:49;100957.44;;;9.84;100.00
11114;BME280;5610;52.154;9.198;2024-02-21T06:57:34;100951.34;;;9.65;100.00
11114;BME280;5610;52.154;9.198;2024-02-21T07:00:20;100948.50;;;9.52;100.00
11114;BME280;5610;52.154;9.198;2024-02-21T07:03:05;100947.59;;;9.69;100.00
11114;BME280;5610;52.154;9.198;2024-02-21T07:05:52;100936.44;;;9.62;100.00
11114;BME280;5610;52.154;9.198;2024-02-21T07:08:37;100935.34;;;9.67;100.00
11114;BME280;5610;52.154;9.198;2024-02-21T07:11:23;100930.81;;;9.84;100.00
11114;BME280;5610;52.154;9.198;2024-02-21T07:14:08;100935.63;;;9.94;100.00
11114;BME280;5610;52.154;9.198;2024-02-21T07:16:53;100921.47;;;9.93;100.00
11114;BME280;5610;52.154;9.198;2024-02-21T07:19:41;100917.16;;;9.75;100.00
11114;BME280;5610;52.154;9.198;2024-02-21T07:22:27;100920.47;;;9.96;100.00
11114;BME280;5610;52.154;9.198;2024-02-21T07:25:13;100925.19;;;10.06;100.00
11114;BME280;5610;52.154;9.198;2024-02-21T07:27:58;100930.44;;;10.08;100.00
11114;BME280;5610;52.154;9.198;2024-02-21T07:30:44;100942.09;;;10.05;100.00
11114;BME280;5610;52.154;9.198;2024-02-21T07:33:29;100935.25;;;10.01;100.00
11114;BME280;5610;52.154;9.198;2024-02-21T07:36:15;100941.00;;;10.09;100.00
11114;BME280;5610;52.154;9.198;2024-02-21T07:39:02;100934.50;;;10.15;100.00
11114;BME280;5610;52.154;9.198;2024-02-21T07:41:49;100934.09;;;10.23;100.00
11114;BME280;5610;52.154;9.198;2024-02-21T07:44:34;100945.50;;;10.25;100.00
11114;BME280;5610;52.154;9.198;2024-02-21T07:47:19;100946.81;;;10.00;100.00
11114;BME280;5610;52.154;9.198;2024-02-21T07:50:05;100956.19;;;10.07;100.00
11114;BME280;5610;52.154;9.198;2024-02-21T07:52:51;100947.19;;;10.10;100.00
11114;BME280;5610;52.154;9.198;2024-02-21T07:55:37;100956.38;;;10.20;100.00
11114;BME280;5610;52.154;9.198;2024-02-21T07:58:22;100958.00;;;10.07;100.00
11114;BME280;5610;52.154;9.198;2024-02-21T08:01:07;100951.78;;;10.24;100.00
11114;BME280;5610;52.154;9.198;2024-02-21T08:03:53;100958.94;;;10.22;100.00
11114;BME280;5610;52.154;9.198;2024-02-21T08:06:38;100955.44;;;10.21;100.00
11114;BME280;5610;52.154;9.198;2024-02-21T08:09:23;100956.06;;;10.42;100.00
11114;BME280;5610;52.154;9.198;2024-02-21T08:12:09;100948.94;;;10.42;100.00
11114;BME280;5610;52.154;9.198;2024-02-21T08:14:54;100944.66;;;10.56;100.00
11114;BME280;5610;52.154;9.198;2024-02-21T08:17:40;100942.84;;;10.56;100.00
11114;BME280;5610;52.154;9.198;2024-02-21T08:20:25;100936.78;;;10.84;100.00
11114;BME280;5610;52.154;9.198;2024-02-21T08:23:12;100934.59;;;11.07;100.00
11114;BME280;5610;52.154;9.198;2024-02-21T08:25:56;100933.47;;;11.11;100.00
11114;BME280;5610;52.154;9.198;2024-02-21T08:28:43;100920.44;;;11.20;100.00
11114;BME280;5610;52.154;9.198;2024-02-21T08:31:29;100918.53;;;11.22;100.00
11114;BME280;5610;52.154;9.198;2024-02-21T08:34:15;100899.81;;;11.38;100.00
11114;BME280;5610;52.154;9.198;2024-02-21T08:37:02;100907.44;;;11.59;100.00
11114;BME280;5610;52.154;9.198;2024-02-21T08:39:47;100904.50;;;11.77;100.00
11114;BME280;5610;52.154;9.198;2024-02-21T08:42:33;100893.84;;;12.06;100.00
11114;BME280;5610;52.154;9.198;2024-02-21T08:45:20;100903.91;;;12.29;100.00
11114;BME280;5610;52.154;9.198;2024-02-21T08:48:06;100898.41;;;12.45;100.00
11114;BME280;5610;52.154;9.198;2024-02-21T08:50:53;100892.50;;;12.40;100.00
11114;BME280;5610;52.154;9.198;2024-02-21T08:53:39;100892.03;;;12.48;100.00
11114;BME280;5610;52.154;9.198;2024-02-21T08:56:24;100888.38;;;12.76;100.00
11114;BME280;5610;52.154;9.198;2024-02-21T08:59:09;100884.22;;;12.84;100.00
11114;BME280;5610;52.154;9.198;2024-02-21T09:01:55;100880.19;;;12.91;100.00
11114;BME280;5610;52.154;9.198;2024-02-21T09:04:41;100880.84;;;13.08;100.00
11114;BME280;5610;52.154;9.198;2024-02-21T09:07:26;100881.72;;;12.42;100.00
11114;BME280;5610;52.154;9.198;2024-02-21T09:10:11;100877.56;;;12.23;100.00
11114;BME280;5610;52.154;9.198;2024-02-21T09:12:56;100879.09;;;12.27;100.00
11114;BME280;5610;52.154;9.198;2024-02-21T09:15:42;100867.59;;;12.40;100.00
11114;BME280;5610;52.154;9.198;2024-02-21T09:18:29;100873.25;;;12.62;100.00
11114;BME280;5610;52.154;9.198;2024-02-21T09:21:14;100872.69;;;12.30;100.00
11114;BME280;5610;52.154;9.198;2024-02-21T09:24:00;100872.88;;;12.54;100.00
11114;BME280;5610;52.154;9.198;2024-02-21T09:26:45;100866.47;;;12.96;100.00
11114;BME280;5610;52.154;9.198;2024-02-21T09:29:31;100874.16;;;13.28;100.00
11114;BME280;5610;52.154;9.198;2024-02-21T09:32:18;100872.13;;;13.31;100.00
11114;BME280;5610;52.154;9.198;2024-02-21T09:35:05;100852.09;;;13.37;100.00
11114;BME280;5610;52.154;9.198;2024-02-21T09:37:50;100854.66;;;13.77;100.00
11114;BME280;5610;52.154;9.198;2024-02-21T09:40:37;100858.88;;;13.55;100.00
11114;BME280;5610;52.154;9.198;2024-02-21T09:43:24;100851.56;;;13.44;100.00
11114;BME280;5610;52.154;9.198;2024-02-21T09:46:13;100857.69;;;13.46;100.00
11114;BME280;5610;52.154;9.198;2024-02-21T09:49:09;100856.84;;;13.33;100.00
11114;BME280;5610;52.154;9.198;2024-02-21T09:52:01;100853.63;;;13.28;100.00
11114;BME280;5610;52.154;9.198;2024-02-21T09:54:47;100862.41;;;13.56;100.00
11114;BME280;5610;52.154;9.198;2024-02-21T09:57:33;100849.97;;;13.29;100.00
11114;BME280;5610;52.154;9.198;2024-02-21T10:00:18;100843.97;;;13.64;100.00
11114;BME280;5610;52.154;9.198;2024-02-21T10:03:05;100842.94;;;14.03;99.21
11114;BME280;5610;52.154;9.198;2024-02-21T10:05:53;100844.78;;;14.50;95.19
11114;BME280;5610;52.154;9.198;2024-02-21T10:08:40;100825.56;;;14.80;89.81
11114;BME280;5610;52.154;9.198;2024-02-21T10:11:25;100827.13;;;14.83;85.16
11114;BME280;5610;52.154;9.198;2024-02-21T10:14:11;100816.81;;;15.01;86.30
11114;BME280;5610;52.154;9.198;2024-02-21T10:16:57;100806.25;;;15.33;83.38
11114;BME280;5610;52.154;9.198;2024-02-21T10:19:43;100806.66;;;15.73;79.02
11114;BME280;5610;52.154;9.198;2024-02-21T10:22:28;100797.09;;;15.24;74.25
11114;BME280;5610;52.154;9.198;2024-02-21T10:25:17;100790.41;;;15.30;72.84
11114;BME280;5610;52.154;9.198;2024-02-21T10:28:04;100795.03;;;15.84;71.44
11114;BME280;5610;52.154;9.198;2024-02-21T10:30:50;100788.53;;;16.09;69.84
11114;BME280;5610;52.154;9.198;2024-02-21T10:33:36;100786.56;;;16.00;68.69
11114;BME280;5610;52.154;9.198;2024-02-21T10:36:22;100789.66;;;15.28;70.53
11114;BME280;5610;52.154;9.198;2024-02-21T10:39:08;100781.84;;;15.58;70.95
11114;BME280;5610;52.154;9.198;2024-02-21T10:41:55;100756.22;;;15.21;67.24
11114;BME280;5610;52.154;9.198;2024-02-21T10:44:45;100762.91;;;15.15;69.39
11114;BME280;5610;52.154;9.198;2024-02-21T10:47:35;100772.69;;;15.16;68.53
11114;BME280;5610;52.154;9.198;2024-02-21T10:50:25;100759.16;;;15.74;68.22
11114;BME280;5610;52.154;9.198;2024-02-21T10:53:17;100770.84;;;15.50;65.90
11114;BME280;5610;52.154;9.198;2024-02-21T10:56:16;100758.84;;;15.99;66.09
11114;BME280;5610;52.154;9.198;2024-02-21T10:59:08;100771.31;;;16.64;66.31
11114;BME280;5610;52.154;9.198;2024-02-21T11:01:53;100753.72;;;17.63;60.45
11114;BME280;5610;52.154;9.198;2024-02-21T11:04:38;100757.06;;;17.76;56.89
11114;BME280;5610;52.154;9.198;2024-02-21T11:07:26;100737.69;;;18.21;56.96
11114;BME280;5610;52.154;9.198;2024-02-21T11:10:20;100730.75;;;18.19;54.38
11114;BME280;5610;52.154;9.198;2024-02-21T11:13:07;100732.16;;;17.63;54.40
11114;BME280;5610;52.154;9.198;2024-02-21T11:15:54;100720.06;;;18.17;54.97
11114;BME280;5610;52.154;9.198;2024-02-21T11:18:39;100721.72;;;19.33;52.85
11114;BME280;5610;52.154;9.198;2024-02-21T11:21:33;100709.16;;;20.50;51.82
11114;BME280;5610;52.154;9.198;2024-02-21T11:24:25;100706.31;;;20.51;48.19
11114;BME280;5610;52.154;9.198;2024-02-21T11:27:12;100718.22;;;21.87;47.08
11114;BME280;5610;52.154;9.198;2024-02-21T11:29:58;100693.75;;;21.71;46.11
11114;BME280;5610;52.154;9.198;2024-02-21T11:32:45;100708.88;;;21.81;45.18
11114;BME280;5610;52.154;9.198;2024-02-21T11:35:31;100688.88;;;21.82;45.60
11114;BME280;5610;52.154;9.198;2024-02-21T11:38:17;100691.91;;;21.71;44.54
11114;BME280;5610;52.154;9.198;2024-02-21T11:41:08;100673.69;;;22.14;44.35
11114;BME280;5610;52.154;9.198;2024-02-21T11:43:53;100675.25;;;21.24;45.58
11114;BME280;5610;52.154;9.198;2024-02-21T11:46:38;100670.72;;;20.98;46.46
11114;BME280;5610;52.154;9.198;2024-02-21T11:49:26;100655.28;;;19.40;48.14
11114;BME280;5610;52.154;9.198;2024-02-21T11:52:11;100655.19;;;19.32;48.48
11114;BME280;5610;52.154;9.198;2024-02-21T11:54:58;100636.53;;;19.38;50.20
11114;BME280;5610;52.154;9.198;2024-02-21T11:57:48;100633.91;;;19.46;50.27
11114;BME280;5610;52.154;9.198;2024-02-21T12:00:34;100622.56;;;20.14;47.90
11114;BME280;5610;52.154;9.198;2024-02-21T12:03:19;100623.75;;;19.31;49.91
11114;BME280;5610;52.154;9.198;2024-02-21T12:06:07;100631.75;;;17.61;52.77
11114;BME280;5610;52.154;9.198;2024-02-21T12:08:57;100632.72;;;15.32;58.49
11114;BME280;5610;52.154;9.198;2024-02-21T12:11:43;100613.31;;;15.83;58.51
11114;BME280;5610;52.154;9.198;2024-02-21T12:14:29;100605.72;;;16.51;57.61
11114;BME280;5610;52.154;9.198;2024-02-21T12:17:15;100612.53;;;16.13;58.42
11114;BME280;5610;52.154;9.198;2024-02-21T12:20:00;100605.94;;;16.68;58.03
11114;BME280;5610;52.154;9.198;2024-02-21T12:22:49;100596.28;;;17.37;57.07
11114;BME280;5610;52.154;9.198;2024-02-21T12:25:35;100607.13;;;17.85;57.94
11114;BME280;5610;52.154;9.198;2024-02-21T12:28:20;100595.91;;;17.90;54.58
11114;BME280;5610;52.154;9.198;2024-02-21T12:31:06;100599.00;;;17.66;53.02
11114;BME280;5610;52.154;9.198;2024-02-21T12:33:51;100610.59;;;17.37;55.30
11114;BME280;5610;52.154;9.198;2024-02-21T12:36:41;100589.31;;;16.33;56.71
11114;BME280;5610;52.154;9.198;2024-02-21T12:39:28;100590.38;;;15.79;58.18
11114;BME280;5610;52.154;9.198;2024-02-21T12:42:13;100591.63;;;16.16;58.74
11114;BME280;5610;52.154;9.198;2024-02-21T12:44:58;100592.22;;;15.99;58.71
11114;BME280;5610;52.154;9.198;2024-02-21T12:47:45;100580.59;;;15.34;61.16
11114;BME280;5610;52.154;9.198;2024-02-21T12:50:30;100562.00;;;14.43;63.23
11114;BME280;5610;52.154;9.198;2024-02-21T12:53:16;100557.00;;;15.17;63.28
11114;BME280;5610;52.154;9.198;2024-02-21T12:56:04;100551.75;;;15.48;62.56
11114;BME280;5610;52.154;9.198;2024-02-21T12:58:51;100549.56;;;15.53;62.44
11114;BME280;5610;52.154;9.198;2024-02-21T13:01:37;100550.50;;;15.31;62.27
11114;BME280;5610;52.154;9.198;2024-02-21T13:04:22;100532.59;;;15.52;62.59
11114;BME280;5610;52.154;9.198;2024-02-21T13:07:08;100531.19;;;15.69;62.09
11114;BME280;5610;52.154;9.198;2024-02-21T13:09:53;100530.91;;;15.40;63.83
11114;BME280;5610;52.154;9.198;2024-02-21T13:12:40;100523.91;;;14.62;65.21
11114;BME280;5610;52.154;9.198;2024-02-21T13:15:25;100505.75;;;14.54;65.75
11114;BME280;5610;52.154;9.198;2024-02-21T13:18:11;100503.59;;;13.80;69.86
11114;BME280;5610;52.154;9.198;2024-02-21T13:20:56;100496.19;;;13.83;72.19
11114;BME280;5610;52.154;9.198;2024-02-21T13:23:41;100489.53;;;13.54;74.80
11114;BME280;5610;52.154;9.198;2024-02-21T13:26:28;100469.78;;;13.90;75.39
11114;BME280;5610;52.154;9.198;2024-02-21T13:29:15;100457.69;;;13.62;76.77
11114;BME280;5610;52.154;9.198;2024-02-21T13:32:00;100450.00;;;13.57;79.23
11114;BME280;5610;52.154;9.198;2024-02-21T13:34:45;100430.31;;;13.81;80.51
11114;BME280;5610;52.154;9.198;2024-02-21T13:37:31;100437.63;;;13.90;80.23
11114;BME280;5610;52.154;9.198;2024-02-21T13:40:16;100448.03;;;13.59;80.98
11114;BME280;5610;52.154;9.198;2024-02-21T13:43:02;100465.34;;;13.31;85.48
11114;BME280;5610;52.154;9.198;2024-02-21T13:45:56;100473.28;;;13.33;86.03
11114;BME280;5610;52.154;9.198;2024-02-21T13:48:42;100446.91;;;13.15;87.26
11114;BME280;5610;52.154;9.198;2024-02-21T13:51:27;100432.50;;;13.29;89.74
11114;BME280;5610;52.154;9.198;2024-02-21T13:54:12;100403.22;;;13.04;91.02
11114;BME280;5610;52.154;9.198;2024-02-21T13:57:01;100390.47;;;13.07;95.08
11114;BME280;5610;52.154;9.198;2024-02-21T13:59:46;100378.25;;;12.68;96.62
11114;BME280;5610;52.154;9.198;2024-02-21T14:02:33;100351.72;;;12.89;97.91
11114;BME280;5610;52.154;9.198;2024-02-21T14:05:18;100333.00;;;12.78;100.00
11114;BME280;5610;52.154;9.198;2024-02-21T14:08:04;100318.91;;;12.87;100.00
11114;BME280;5610;52.154;9.198;2024-02-21T14:10:49;100287.72;;;12.99;100.00
11114;BME280;5610;52.154;9.198;2024-02-21T14:13:35;100291.78;;;12.69;100.00
11114;BME280;5610;52.154;9.198;2024-02-21T14:16:20;100284.69;;;12.68;100.00
11114;BME280;5610;52.154;9.198;2024-02-21T14:19:07;100308.75;;;12.68;100.00
11114;BME280;5610;52.154;9.198;2024-02-21T14:21:53;100311.59;;;12.78;100.00
11114;BME280;5610;52.154;9.198;2024-02-21T14:24:38;100293.88;;;12.88;100.00
11114;BME280;5610;52.154;9.198;2024-02-21T14:27:23;100277.44;;;12.81;100.00
11114;BME280;5610;52.154;9.198;2024-02-21T14:30:08;100276.41;;;13.06;100.00
11114;BME280;5610;52.154;9.198;2024-02-21T14:32:55;100263.91;;;13.18;100.00
11114;BME280;5610;52.154;9.198;2024-02-21T14:35:41;100254.31;;;13.38;100.00